Time;durP1;ratioP1;P1;durP2;ratioP2;P2;SDS_P1;SDS_P2;PMS_P1;PMS_P2;Temp;Humidity;BMP_temperature;BMP_pressure;BME280_temperature;BME280_humidity;BME280_pressure;Samples;Min_cycle;Max_cycle;Signal;HPM_P1;HPM_P2
2021/04/12 00:02:23;;;;;;;;;;;;;;;8.77;43.51;100398.09;5018060;28;20011;-77
2021/04/12 00:04:52;;;;;;;;;;;;;;;8.71;44.08;100405.75;5035734;28;19909;-76
2021/04/12 00:07:21;;;;;;;;;;;;;;;8.70;44.14;100399.66;5035150;28;20024;-77
2021/04/12 00:10:06;;;;;;;;;;;;;;;8.71;43.77;100392.59;5035297;28;19917;-76
2021/04/12 00:12:38;;;;;;;;;;;;;;;8.69;43.59;100397.16;5025025;28;19919;-77
2021/04/12 00:15:25;;;;;;;;;;;;;;;8.68;44.65;100382.34;5035479;28;19956;-76
2021/04/12 00:17:52;;;;;;;;;;;;;;;8.66;43.88;100376.41;5017794;28;19963;-77
2021/04/12 00:20:25;;;;;;;;;;;;;;;8.65;43.78;100383.47;5035246;28;19919;-76
2021/04/12 00:22:54;;;;;;;;;;;;;;;8.64;44.89;100383.59;5035469;28;19909;-76
2021/04/12 00:25:24;;;;;;;;;;;;;;;8.67;44.01;100376.25;5035257;28;19913;-77
2021/04/12 00:27:53;;;;;;;;;;;;;;;8.64;44.76;100380.97;5035514;28;20386;-77
2021/04/12 00:30:27;;;;;;;;;;;;;;;8.60;45.42;100370.75;5035277;28;20320;-77
2021/04/12 00:33:02;;;;;;;;;;;;;;;8.58;45.18;100369.22;5035101;28;19916;-77
2021/04/12 00:35:36;;;;;;;;;;;;;;;8.55;46.70;100374.78;5035134;28;19909;-77
2021/04/12 00:38:11;;;;;;;;;;;;;;;8.52;45.12;100372.44;5035071;28;19916;-77
2021/04/12 00:40:56;;;;;;;;;;;;;;;8.54;45.09;100367.84;5017452;28;19909;-77
2021/04/12 00:43:27;;;;;;;;;;;;;;;8.54;46.08;100368.69;5024667;28;19917;-77
2021/04/12 00:46:22;;;;;;;;;;;;;;;8.47;45.55;100370.25;5035022;28;19924;-77
2021/04/12 00:49:00;;;;;;;;;;;;;;;8.45;45.46;100364.28;5022221;28;19912;-77
2021/04/12 00:51:38;;;;;;;;;;;;;;;8.41;45.28;100369.97;5034818;28;20343;-77
2021/04/12 00:54:22;;;;;;;;;;;;;;;8.37;44.80;100379.13;5034952;28;19916;-77
2021/04/12 00:56:56;;;;;;;;;;;;;;;8.32;45.49;100379.53;5017324;28;20284;-77
2021/04/12 00:59:21;;;;;;;;;;;;;;;8.23;45.72;100377.75;5034645;28;19917;-78
2021/04/12 01:02:10;;;;;;;;;;;;;;;8.18;44.37;100375.56;5034864;28;19915;-77
2021/04/12 01:04:58;;;;;;;;;;;;;;;8.10;45.81;100367.50;5027056;28;20698;-77
2021/04/12 01:07:29;;;;;;;;;;;;;;;8.01;45.09;100367.53;5034861;28;19909;-77
2021/04/12 01:10:13;;;;;;;;;;;;;;;7.96;45.43;100373.22;5034731;28;19913;-77
2021/04/12 01:12:47;;;;;;;;;;;;;;;7.89;46.34;100372.94;5017129;28;19909;-77
2021/04/12 01:15:32;;;;;;;;;;;;;;;7.85;44.78;100373.38;5017283;28;19909;-77
2021/04/12 01:18:15;;;;;;;;;;;;;;;7.74;46.17;100365.63;5034876;28;19971;-79
2021/04/12 01:20:55;;;;;;;;;;;;;;;7.66;45.81;100366.34;5038724;28;19932;-77
2021/04/12 01:23:43;;;;;;;;;;;;;;;7.61;48.11;100369.38;5038420;28;19909;-77
2021/04/12 01:26:11;;;;;;;;;;;;;;;7.58;46.58;100371.47;5038553;28;20245;-77
2021/04/12 01:28:57;;;;;;;;;;;;;;;7.56;46.21;100373.41;5020786;28;19913;-77
2021/04/12 01:31:41;;;;;;;;;;;;;;;7.54;47.05;100367.44;5020723;28;19932;-77
2021/04/12 01:34:29;;;;;;;;;;;;;;;7.49;47.39;100362.59;5038275;28;20315;-78
2021/04/12 01:36:55;;;;;;;;;;;;;;;7.48;47.58;100360.13;5038459;28;19915;-77
2021/04/12 01:39:29;;;;;;;;;;;;;;;7.50;45.36;100360.81;5038099;28;19996;-77
2021/04/12 01:42:03;;;;;;;;;;;;;;;7.46;47.74;100359.44;5038127;28;19909;-77
2021/04/12 01:44:47;;;;;;;;;;;;;;;7.47;45.85;100369.78;5020486;28;19915;-77
2021/04/12 01:47:28;;;;;;;;;;;;;;;7.48;46.17;100357.50;5020531;28;20007;-77
2021/04/12 01:49:56;;;;;;;;;;;;;;;7.46;46.51;100357.63;5020423;28;19933;-77
2021/04/12 01:52:40;;;;;;;;;;;;;;;7.49;45.07;100349.47;5020355;28;20243;-77
2021/04/12 01:55:24;;;;;;;;;;;;;;;7.48;47.35;100360.94;5037905;28;19909;-76
2021/04/12 01:58:08;;;;;;;;;;;;;;;7.53;47.23;100357.91;5038036;28;19913;-76
2021/04/12 02:00:41;;;;;;;;;;;;;;;7.56;47.36;100363.72;5020134;28;20220;-76
2021/04/12 02:03:09;;;;;;;;;;;;;;;7.56;45.39;100358.47;5037804;28;19991;-76
2021/04/12 02:05:53;;;;;;;;;;;;;;;7.51;46.18;100367.72;5037743;28;20243;-76
2021/04/12 02:08:25;;;;;;;;;;;;;;;7.48;45.56;100362.75;5020009;28;19958;-76
2021/04/12 02:11:02;;;;;;;;;;;;;;;7.45;46.37;100369.09;5037639;28;20231;-77
2021/04/12 02:13:46;;;;;;;;;;;;;;;7.35;46.93;100357.72;5020094;28;19909;-77
2021/04/12 02:16:21;;;;;;;;;;;;;;;7.29;47.11;100348.59;5037664;28;19916;-77
2021/04/12 02:19:05;;;;;;;;;;;;;;;7.25;46.30;100349.00;5019964;28;19913;-77
2021/04/12 02:21:46;;;;;;;;;;;;;;;7.20;47.31;100357.31;5019868;28;20224;-76
2021/04/12 02:24:27;;;;;;;;;;;;;;;7.14;47.89;100352.59;5019866;28;19996;-75
2021/04/12 02:26:52;;;;;;;;;;;;;;;7.08;46.49;100347.06;5037550;28;19913;-75
2021/04/12 02:29:36;;;;;;;;;;;;;;;6.98;48.28;100352.28;5037111;28;20008;-76
2021/04/12 02:32:07;;;;;;;;;;;;;;;6.97;47.31;100348.00;5037388;28;19909;-77
2021/04/12 02:34:35;;;;;;;;;;;;;;;6.97;47.09;100345.38;5037056;28;20405;-76
2021/04/12 02:37:07;;;;;;;;;;;;;;;6.95;46.20;100353.41;5037195;28;20296;-77
2021/04/12 02:39:38;;;;;;;;;;;;;;;6.92;47.81;100342.34;5037220;28;19967;-77
2021/04/12 02:42:18;;;;;;;;;;;;;;;6.91;47.28;100336.25;5037145;28;19916;-77
2021/04/12 02:45:02;;;;;;;;;;;;;;;6.91;47.70;100336.25;5019450;28;19916;-76
2021/04/12 02:47:45;;;;;;;;;;;;;;;6.92;46.33;100337.09;5019428;28;19916;-78
2021/04/12 02:50:20;;;;;;;;;;;;;;;6.89;47.29;100337.34;5036933;28;19909;-75
2021/04/12 02:52:59;;;;;;;;;;;;;;;6.85;45.88;100325.47;5036992;28;20311;-75
2021/04/12 02:55:25;;;;;;;;;;;;;;;6.81;47.98;100327.53;5036955;28;20319;-76
2021/04/12 02:57:50;;;;;;;;;;;;;;;6.77;48.73;100339.25;5019255;28;19924;-74
2021/04/12 03:00:27;;;;;;;;;;;;;;;6.75;46.87;100335.09;5037017;28;20311;-79
2021/04/12 03:02:55;;;;;;;;;;;;;;;6.73;47.16;100337.88;5036670;28;19916;-77
2021/04/12 03:05:24;;;;;;;;;;;;;;;6.71;47.64;100338.97;5018945;28;19972;-76
2021/04/12 03:08:04;;;;;;;;;;;;;;;6.72;46.64;100338.00;5036756;28;19909;-76
2021/04/12 03:10:47;;;;;;;;;;;;;;;6.73;47.50;100340.50;5018725;28;20342;-76
2021/04/12 03:13:18;;;;;;;;;;;;;;;6.73;46.60;100330.00;5036487;28;19953;-75
2021/04/12 03:16:02;;;;;;;;;;;;;;;6.74;46.82;100336.06;5018870;28;19913;-76
2021/04/12 03:18:46;;;;;;;;;;;;;;;6.70;47.21;100332.88;5018663;28;19913;-76
2021/04/12 03:21:21;;;;;;;;;;;;;;;6.66;49.06;100326.22;5018788;28;19912;-77
2021/04/12 03:24:05;;;;;;;;;;;;;;;6.62;47.97;100324.81;5036416;28;20000;-77
2021/04/12 03:26:42;;;;;;;;;;;;;;;6.64;47.34;100328.97;5036304;28;19967;-77
2021/04/12 03:29:15;;;;;;;;;;;;;;;6.58;47.34;100332.13;5036112;28;19916;-77
2021/04/12 03:31:59;;;;;;;;;;;;;;;6.54;46.92;100324.66;5036098;28;19916;-78
2021/04/12 03:34:30;;;;;;;;;;;;;;;6.51;47.57;100319.69;5018417;28;19963;-77
2021/04/12 03:37:10;;;;;;;;;;;;;;;6.51;47.09;100312.63;5018532;28;20316;-77
2021/04/12 03:39:35;;;;;;;;;;;;;;;6.43;48.98;100320.34;5018161;28;19913;-77
2021/04/12 03:42:21;;;;;;;;;;;;;;;6.47;47.23;100323.53;5035579;28;20216;-77
2021/04/12 03:45:01;;;;;;;;;;;;;;;6.45;46.73;100315.78;5008207;28;19915;-76
2021/04/12 03:47:36;;;;;;;;;;;;;;;6.43;47.78;100312.47;5035697;28;19913;-77
2021/04/12 03:50:19;;;;;;;;;;;;;;;6.47;46.95;100311.25;5018079;28;19916;-77
2021/04/12 03:53:00;;;;;;;;;;;;;;;6.47;48.26;100313.03;5035808;28;19943;-76
2021/04/12 03:55:43;;;;;;;;;;;;;;;6.43;47.65;100314.25;5035576;28;19916;-78
2021/04/12 03:58:14;;;;;;;;;;;;;;;6.42;47.43;100325.72;5035677;28;19920;-77
2021/04/12 04:00:45;;;;;;;;;;;;;;;6.37;47.95;100326.94;5035504;28;19992;-77
2021/04/12 04:03:29;;;;;;;;;;;;;;;6.33;47.97;100328.16;5018041;28;19909;-77
2021/04/12 04:06:03;;;;;;;;;;;;;;;6.34;48.58;100345.56;5035526;28;19916;-77
2021/04/12 04:08:47;;;;;;;;;;;;;;;6.36;47.79;100351.50;5017901;28;20251;-77
2021/04/12 04:11:17;;;;;;;;;;;;;;;6.38;47.37;100344.34;5017660;28;19956;-77
2021/04/12 04:14:01;;;;;;;;;;;;;;;6.37;48.12;100347.94;5035286;28;20315;-77
2021/04/12 04:16:36;;;;;;;;;;;;;;;6.41;48.53;100339.78;5035082;28;19921;-77
2021/04/12 04:19:27;;;;;;;;;;;;;;;6.43;47.78;100340.50;5035213;28;19919;-77
2021/04/12 04:22:02;;;;;;;;;;;;;;;6.41;49.07;100331.94;5035487;28;19916;-78
2021/04/12 04:24:30;;;;;;;;;;;;;;;6.40;48.69;100344.22;5035135;28;20319;-77
2021/04/12 04:26:58;;;;;;;;;;;;;;;6.43;48.41;100340.50;5035351;28;19915;-78
2021/04/12 04:29:23;;;;;;;;;;;;;;;6.56;47.34;100333.22;5035048;28;19909;-78
2021/04/12 04:32:07;;;;;;;;;;;;;;;6.69;47.21;100331.22;5035238;28;19909;-77
2021/04/12 04:34:34;;;;;;;;;;;;;;;6.81;46.48;100334.56;5035512;28;19951;-77
2021/04/12 04:37:23;;;;;;;;;;;;;;;6.65;46.92;100329.81;5017736;28;20316;-77
2021/04/12 04:40:07;;;;;;;;;;;;;;;6.71;47.75;100338.97;5035164;28;19913;-76
2021/04/12 04:42:41;;;;;;;;;;;;;;;6.77;47.14;100331.38;5035004;28;19920;-77
2021/04/12 04:45:21;;;;;;;;;;;;;;;6.76;47.15;100337.59;5035176;28;19977;-77
2021/04/12 04:48:05;;;;;;;;;;;;;;;6.82;47.45;100326.56;5035076;28;20312;-77
2021/04/12 04:50:37;;;;;;;;;;;;;;;6.95;46.90;100331.56;5017185;28;19917;-77
2021/04/12 04:53:20;;;;;;;;;;;;;;;7.01;47.61;100331.84;5034819;28;20011;-77
2021/04/12 04:56:05;;;;;;;;;;;;;;;7.12;46.83;100327.44;5021494;28;19916;-77
2021/04/12 04:58:30;;;;;;;;;;;;;;;7.18;46.98;100325.09;5038764;28;19971;-76
2021/04/12 05:01:10;;;;;;;;;;;;;;;7.22;47.26;100328.28;5038929;28;19909;-76
2021/04/12 05:04:05;;;;;;;;;;;;;;;7.22;46.62;100334.34;5038660;28;19909;-76
2021/04/12 05:06:45;;;;;;;;;;;;;;;7.27;47.34;100339.19;5025878;28;19909;-77
2021/04/12 05:09:10;;;;;;;;;;;;;;;7.33;47.09;100323.72;5038821;28;20304;-77
2021/04/12 05:11:43;;;;;;;;;;;;;;;7.36;46.93;100319.97;5021000;28;19917;-77
2021/04/12 05:14:27;;;;;;;;;;;;;;;7.28;47.13;100317.22;5038633;28;19920;-76
2021/04/12 05:17:11;;;;;;;;;;;;;;;7.03;48.43;100321.22;5038778;28;20015;-77
2021/04/12 05:19:48;;;;;;;;;;;;;;;7.04;48.94;100325.50;5038471;28;19962;-77
2021/04/12 05:22:30;;;;;;;;;;;;;;;7.17;46.59;100322.59;5038676;28;19909;-77
2021/04/12 05:25:25;;;;;;;;;;;;;;;7.22;48.12;100320.41;5038556;28;20388;-77
2021/04/12 05:28:08;;;;;;;;;;;;;;;7.17;47.42;100314.72;5025614;28;19944;-77
2021/04/12 05:30:34;;;;;;;;;;;;;;;7.22;48.18;100317.78;5020661;28;19909;-78
2021/04/12 05:32:59;;;;;;;;;;;;;;;7.27;47.34;100318.19;5037809;28;20254;-78
2021/04/12 05:35:34;;;;;;;;;;;;;;;7.40;47.68;100318.75;5037168;28;19955;-77
2021/04/12 05:38:17;;;;;;;;;;;;;;;7.59;47.69;100316.13;5038392;28;19913;-78
2021/04/12 05:40:46;;;;;;;;;;;;;;;7.64;46.71;100305.19;5037597;28;19947;-77
2021/04/12 05:43:27;;;;;;;;;;;;;;;7.72;48.07;100307.13;5019863;28;19913;-77
2021/04/12 05:46:11;;;;;;;;;;;;;;;7.87;48.03;100314.44;5037895;28;20232;-77
2021/04/12 05:49:02;;;;;;;;;;;;;;;8.05;46.77;100314.50;5034295;28;19982;-77
2021/04/12 05:51:46;;;;;;;;;;;;;;;8.16;48.02;100310.88;5013259;28;19948;-77
2021/04/12 05:54:20;;;;;;;;;;;;;;;8.27;46.97;100316.00;5020016;28;19909;-76
2021/04/12 05:56:45;;;;;;;;;;;;;;;8.42;47.55;100313.75;5037622;28;19913;-76
2021/04/12 05:59:37;;;;;;;;;;;;;;;8.48;46.44;100303.47;5037717;28;20247;-75
2021/04/12 06:02:25;;;;;;;;;;;;;;;8.59;46.25;100307.72;5037943;28;20271;-76
2021/04/12 06:05:08;;;;;;;;;;;;;;;8.72;47.10;100310.00;5037511;28;19998;-76
2021/04/12 06:07:52;;;;;;;;;;;;;;;8.90;45.20;100308.22;5019888;28;19909;-77
2021/04/12 06:10:41;;;;;;;;;;;;;;;9.01;44.95;100302.78;5037288;28;20323;-76
2021/04/12 06:13:24;;;;;;;;;;;;;;;9.16;44.44;100301.28;5029297;28;19913;-77
2021/04/12 06:16:11;;;;;;;;;;;;;;;9.30;44.21;100302.53;5019116;28;19913;-77
2021/04/12 06:18:37;;;;;;;;;;;;;;;9.36;44.10;100309.03;5028800;28;19916;-77
2021/04/12 06:21:21;;;;;;;;;;;;;;;9.44;43.37;100295.91;5035799;28;20298;-76
2021/04/12 06:23:55;;;;;;;;;;;;;;;9.59;43.36;100296.19;5036939;28;20228;-77
2021/04/12 06:26:29;;;;;;;;;;;;;;;9.66;42.74;100290.19;5029596;28;19944;-77
2021/04/12 06:29:21;;;;;;;;;;;;;;;9.79;42.08;100287.97;5035179;28;19959;-77
2021/04/12 06:32:10;;;;;;;;;;;;;;;9.81;42.27;100296.53;5000051;28;19951;-76
2021/04/12 06:34:38;;;;;;;;;;;;;;;9.91;41.32;100301.72;5034268;28;19928;-77
2021/04/12 06:37:21;;;;;;;;;;;;;;;9.97;41.68;100301.09;5034702;28;19913;-79
2021/04/12 06:40:05;;;;;;;;;;;;;;;10.00;40.68;100297.31;5021442;28;19917;-75
2021/04/12 06:42:49;;;;;;;;;;;;;;;10.11;41.26;100291.78;5016672;28;19924;-76
2021/04/12 06:45:29;;;;;;;;;;;;;;;10.29;40.99;100287.28;5035687;28;19943;-76
2021/04/12 06:48:03;;;;;;;;;;;;;;;10.42;40.07;100289.50;5017757;28;19920;-83
2021/04/12 06:50:29;;;;;;;;;;;;;;;10.52;40.64;100294.66;5035740;28;19909;-76
2021/04/12 06:53:33;;;;;;;;;;;;;;;10.69;40.78;100293.75;5017403;28;20240;-76
2021/04/12 06:55:58;;;;;;;;;;;;;;;10.77;40.04;100297.22;5027542;28;19913;-77
2021/04/12 06:58:42;;;;;;;;;;;;;;;10.92;39.66;100300.06;5031099;28;19921;-76
2021/04/12 07:01:26;;;;;;;;;;;;;;;10.96;39.11;100293.47;5029338;28;20014;-76
2021/04/12 07:04:09;;;;;;;;;;;;;;;11.07;38.81;100297.63;5032744;28;19913;-76
2021/04/12 07:06:35;;;;;;;;;;;;;;;11.23;38.58;100302.13;5034853;28;19912;-78
2021/04/12 07:09:19;;;;;;;;;;;;;;;11.24;38.56;100298.50;5013519;28;19913;-79
2021/04/12 07:11:53;;;;;;;;;;;;;;;11.22;38.44;100298.66;4991056;28;618548;-75
2021/04/12 07:14:18;;;;;;;;;;;;;;;11.35;38.72;100296.38;5034738;28;19913;-77
2021/04/12 07:16:53;;;;;;;;;;;;;;;11.36;38.09;100292.72;5035097;28;19944;-76
2021/04/12 07:19:18;;;;;;;;;;;;;;;11.49;39.12;100284.28;5035154;28;19927;-76
2021/04/12 07:22:02;;;;;;;;;;;;;;;11.65;38.72;100286.09;5033834;28;19913;-75
2021/04/12 07:24:27;;;;;;;;;;;;;;;11.84;38.63;100284.94;5034816;28;19920;-77
2021/04/12 07:26:58;;;;;;;;;;;;;;;11.95;38.78;100276.69;5034712;28;20259;-76
2021/04/12 07:29:37;;;;;;;;;;;;;;;12.02;38.77;100270.56;5017941;28;20343;-76
2021/04/12 07:32:21;;;;;;;;;;;;;;;12.14;38.23;100264.91;5035848;28;19913;-76
2021/04/12 07:35:01;;;;;;;;;;;;;;;12.18;39.63;100267.03;5033830;28;19916;-76
2021/04/12 07:37:56;;;;;;;;;;;;;;;12.30;38.62;100265.66;5035333;28;19920;-76
2021/04/12 07:40:30;;;;;;;;;;;;;;;12.35;38.35;100265.97;5007114;28;19913;-76
2021/04/12 07:43:08;;;;;;;;;;;;;;;12.39;38.97;100261.16;5013839;28;19913;-76
2021/04/12 07:45:59;;;;;;;;;;;;;;;12.43;38.60;100264.28;5008729;28;19921;-76
2021/04/12 07:48:43;;;;;;;;;;;;;;;12.50;38.61;100262.59;5034178;28;19917;-76
2021/04/12 07:51:28;;;;;;;;;;;;;;;12.64;38.56;100262.72;5035623;28;19924;-76
2021/04/12 07:54:08;;;;;;;;;;;;;;;12.79;38.48;100260.16;5035261;28;19916;-76
2021/04/12 07:56:36;;;;;;;;;;;;;;;12.87;37.63;100244.19;5033231;28;20331;-76
2021/04/12 07:59:04;;;;;;;;;;;;;;;12.98;37.55;100248.28;5033565;28;19967;-78
2021/04/12 08:01:48;;;;;;;;;;;;;;;13.05;36.49;100239.44;5034863;28;19948;-77
2021/04/12 08:04:17;;;;;;;;;;;;;;;13.17;37.40;100239.88;5033343;28;19913;-79
2021/04/12 08:06:42;;;;;;;;;;;;;;;13.24;36.83;100237.34;5032601;28;19912;-77
2021/04/12 08:09:26;;;;;;;;;;;;;;;13.35;37.32;100228.94;5035917;28;19912;-78
2021/04/12 08:11:54;;;;;;;;;;;;;;;13.53;37.20;100221.53;5017906;28;20286;-77
2021/04/12 08:14:38;;;;;;;;;;;;;;;13.64;36.75;100218.44;5033510;28;19917;-77
2021/04/12 08:17:22;;;;;;;;;;;;;;;13.78;36.88;100222.09;5016538;28;19959;-78
2021/04/12 08:19:59;;;;;;;;;;;;;;;13.92;36.57;100215.97;5034430;28;19924;-79
2021/04/12 08:22:40;;;;;;;;;;;;;;;14.03;36.43;100208.53;5034166;28;20278;-78
2021/04/12 08:25:29;;;;;;;;;;;;;;;14.18;36.34;100206.72;5030768;28;19913;-77
2021/04/12 08:28:19;;;;;;;;;;;;;;;14.40;36.79;100203.13;5033894;28;19986;-78
2021/04/12 08:31:00;;;;;;;;;;;;;;;14.55;36.03;100203.13;5033864;28;19924;-77
2021/04/12 08:33:44;;;;;;;;;;;;;;;14.65;35.66;100197.50;5023340;28;19916;-77
2021/04/12 08:36:30;;;;;;;;;;;;;;;14.81;35.74;100187.44;5017326;28;19909;-79
2021/04/12 08:39:22;;;;;;;;;;;;;;;14.98;34.50;100192.53;5034219;28;19917;-75
2021/04/12 08:41:47;;;;;;;;;;;;;;;15.13;35.59;100183.47;5026539;28;20027;-76
2021/04/12 08:44:21;;;;;;;;;;;;;;;15.26;34.79;100183.56;5033592;28;19924;-77
2021/04/12 08:46:49;;;;;;;;;;;;;;;15.50;34.81;100178.84;5030979;28;19932;-77
2021/04/12 08:49:15;;;;;;;;;;;;;;;15.67;34.96;100185.56;5034592;28;20303;-77
2021/04/12 08:51:43;;;;;;;;;;;;;;;15.87;35.23;100175.03;5031854;28;19963;-77
2021/04/12 08:54:28;;;;;;;;;;;;;;;15.49;34.18;100092.84;5037171;28;19920;-77
2021/04/12 08:57:12;;;;;;;;;;;;;;;16.24;34.47;100171.09;5027404;28;19913;-77
2021/04/12 08:59:55;;;;;;;;;;;;;;;16.38;32.69;100162.16;5024728;28;19924;-78
2021/04/12 09:02:50;;;;;;;;;;;;;;;16.57;33.97;100165.06;5030084;28;19921;-78
2021/04/12 09:05:33;;;;;;;;;;;;;;;16.75;33.86;100155.50;5013697;28;19913;-78
2021/04/12 09:08:14;;;;;;;;;;;;;;;16.93;33.72;100144.22;5016292;28;19917;-78
2021/04/12 09:10:48;;;;;;;;;;;;;;;17.09;32.21;100137.66;5016701;28;19996;-77
2021/04/12 09:13:32;;;;;;;;;;;;;;;17.29;32.92;100132.31;5032609;28;19996;-77
2021/04/12 09:16:12;;;;;;;;;;;;;;;17.44;31.68;100125.72;5016185;28;20279;-78
2021/04/12 09:18:47;;;;;;;;;;;;;;;17.42;29.56;100127.78;5029651;28;19943;-78
2021/04/12 09:21:30;;;;;;;;;;;;;;;17.50;31.36;100117.91;5032268;28;19917;-78
2021/04/12 09:24:02;;;;;;;;;;;;;;;17.79;31.65;100120.94;5032540;28;19914;-79
2021/04/12 09:26:47;;;;;;;;;;;;;;;17.93;31.45;100112.91;5033033;28;19939;-76
2021/04/12 09:29:14;;;;;;;;;;;;;;;18.16;31.78;100105.19;5006462;28;20255;-76
2021/04/12 09:31:43;;;;;;;;;;;;;;;18.28;31.39;100111.50;5015439;28;19921;-78
2021/04/12 09:34:25;;;;;;;;;;;;;;;18.47;30.00;100111.59;5010110;28;19912;-77
2021/04/12 09:37:10;;;;;;;;;;;;;;;18.70;30.61;100114.59;5016453;28;19968;-78
2021/04/12 09:39:47;;;;;;;;;;;;;;;18.93;31.10;100103.28;5054060;28;19920;-76
2021/04/12 09:42:35;;;;;;;;;;;;;;;19.07;30.75;100099.47;5037365;28;19919;-82
2021/04/12 09:45:19;;;;;;;;;;;;;;;19.13;29.69;100093.22;5037549;28;19963;-76
2021/04/12 09:48:13;;;;;;;;;;;;;;;19.28;30.07;100096.38;5035240;28;19995;-78
2021/04/12 09:50:44;;;;;;;;;;;;;;;19.39;29.25;100094.03;5009090;28;19919;-74
2021/04/12 09:53:16;;;;;;;;;;;;;;;19.34;28.89;100090.16;5019535;28;19919;-76
2021/04/12 09:55:47;;;;;;;;;;;;;;;19.43;28.75;100082.66;5037405;28;20339;-76
2021/04/12 09:58:27;;;;;;;;;;;;;;;19.48;28.26;100090.84;5028511;28;19936;-76
2021/04/12 10:00:57;;;;;;;;;;;;;;;19.62;28.45;100076.28;5035557;28;19916;-77
2021/04/12 10:03:41;;;;;;;;;;;;;;;19.86;27.33;100071.88;5040995;28;19917;-80
2021/04/12 10:06:25;;;;;;;;;;;;;;;20.17;27.01;100073.53;5013809;28;19916;-77
2021/04/12 10:09:09;;;;;;;;;;;;;;;20.28;28.16;100063.91;5035361;28;19913;-77
2021/04/12 10:11:44;;;;;;;;;;;;;;;20.51;28.30;100068.53;5036888;28;20044;-78
2021/04/12 10:14:21;;;;;;;;;;;;;;;20.66;27.11;100060.88;5012441;28;19936;-77
2021/04/12 10:17:02;;;;;;;;;;;;;;;20.83;27.52;100066.41;5014300;28;19913;-76
2021/04/12 10:19:40;;;;;;;;;;;;;;;20.91;25.96;100060.69;5029698;28;19917;-77
2021/04/12 10:22:10;;;;;;;;;;;;;;;21.11;25.13;100061.16;5019507;28;19912;-80
2021/04/12 10:24:35;;;;;;;;;;;;;;;21.33;24.20;100061.41;5017928;28;19951;-75
2021/04/12 10:27:18;;;;;;;;;;;;;;;21.44;26.74;100047.13;5036887;28;19909;-75
2021/04/12 10:29:49;;;;;;;;;;;;;;;21.50;26.79;100048.88;5035350;28;19916;-76
2021/04/12 10:32:19;;;;;;;;;;;;;;;21.73;25.84;100049.88;5031737;28;19913;-78
2021/04/12 10:34:47;;;;;;;;;;;;;;;21.99;23.30;100046.63;5037029;28;19964;-76
2021/04/12 10:37:31;;;;;;;;;;;;;;;22.15;24.54;100035.13;5035808;28;20292;-78
2021/04/12 10:39:59;;;;;;;;;;;;;;;22.27;25.57;100029.69;5017285;28;20332;-76
2021/04/12 10:42:33;;;;;;;;;;;;;;;22.35;26.06;100041.97;5017013;28;19909;-76
2021/04/12 10:45:03;;;;;;;;;;;;;;;22.28;25.89;100031.31;5021309;28;20040;-78
2021/04/12 10:47:35;;;;;;;;;;;;;;;22.41;23.29;100033.72;5019238;28;20275;-75
2021/04/12 10:50:04;;;;;;;;;;;;;;;22.66;24.83;100032.50;5036555;28;19909;-76
2021/04/12 10:52:30;;;;;;;;;;;;;;;22.71;24.99;100022.63;5034104;28;19923;-76
2021/04/12 10:55:06;;;;;;;;;;;;;;;22.77;24.96;100018.97;5018971;28;19908;-76
2021/04/12 10:57:34;;;;;;;;;;;;;;;22.96;25.09;100005.25;5036439;28;19916;-76
2021/04/12 10:59:59;;;;;;;;;;;;;;;22.96;23.88;100011.44;5016768;28;19945;-78
2021/04/12 11:02:43;;;;;;;;;;;;;;;23.02;24.12;100004.25;5033781;28;19956;-78
2021/04/12 11:05:12;;;;;;;;;;;;;;;23.31;24.43;100003.06;5018710;28;20539;-76
2021/04/12 11:07:56;;;;;;;;;;;;;;;23.46;22.98;100002.44;5034369;28;19990;-76
2021/04/12 11:10:41;;;;;;;;;;;;;;;23.70;21.92;100000.31;5018212;28;20027;-75
2021/04/12 11:13:25;;;;;;;;;;;;;;;23.90;22.51;99988.97;5036017;28;19919;-76
2021/04/12 11:16:09;;;;;;;;;;;;;;;23.98;24.37;99989.31;5035048;28;19926;-76
2021/04/12 11:18:37;;;;;;;;;;;;;;;24.14;23.17;100000.25;5034395;28;19923;-76
2021/04/12 11:21:05;;;;;;;;;;;;;;;24.30;22.07;99983.16;5035986;28;19913;-76
2021/04/12 11:23:33;;;;;;;;;;;;;;;24.37;23.83;99983.75;5035792;28;19958;-75
2021/04/12 11:25:58;;;;;;;;;;;;;;;24.49;24.20;99978.16;5033145;28;19948;-76
2021/04/12 11:28:42;;;;;;;;;;;;;;;24.27;23.92;99979.06;5035337;28;19932;-75
2021/04/12 11:31:26;;;;;;;;;;;;;;;24.40;22.22;99983.22;5032826;28;20015;-77
2021/04/12 11:33:56;;;;;;;;;;;;;;;24.50;23.12;99983.31;5019615;28;19923;-76
2021/04/12 11:36:21;;;;;;;;;;;;;;;24.67;22.14;99988.59;5033858;28;19913;-76
2021/04/12 11:38:53;;;;;;;;;;;;;;;24.61;23.56;99981.53;5035548;28;19913;-77
2021/04/12 11:41:21;;;;;;;;;;;;;;;24.39;23.38;99968.09;5018107;28;19912;-76
2021/04/12 11:43:49;;;;;;;;;;;;;;;24.42;21.10;99964.88;5018121;28;19909;-77
2021/04/12 11:46:20;;;;;;;;;;;;;;;24.53;23.00;99960.41;5036108;28;20327;-77
2021/04/12 11:48:49;;;;;;;;;;;;;;;24.81;22.71;99965.44;5017921;28;19908;-76
2021/04/12 11:51:21;;;;;;;;;;;;;;;25.06;21.81;99959.41;5035602;28;19967;-76
2021/04/12 11:53:55;;;;;;;;;;;;;;;25.23;20.87;99945.69;5034897;28;19920;-75
2021/04/12 11:56:23;;;;;;;;;;;;;;;25.24;22.83;99953.53;5032999;28;19978;-83
2021/04/12 11:58:55;;;;;;;;;;;;;;;25.09;23.16;99939.16;5032902;28;20359;-76
2021/04/12 12:01:33;;;;;;;;;;;;;;;25.09;23.11;99933.75;5027805;28;19920;-76
2021/04/12 12:04:17;;;;;;;;;;;;;;;25.26;23.01;99931.66;5030446;28;19929;-78
2021/04/12 12:06:48;;;;;;;;;;;;;;;25.16;23.15;99932.41;5034054;28;19912;-75
2021/04/12 12:09:32;;;;;;;;;;;;;;;24.96;22.72;99918.78;5035316;28;19920;-78
2021/04/12 12:11:57;;;;;;;;;;;;;;;24.93;21.89;99922.84;5045509;28;19913;-76
2021/04/12 12:14:32;;;;;;;;;;;;;;;24.83;22.49;99927.38;5037323;28;20352;-76
2021/04/12 12:16:57;;;;;;;;;;;;;;;24.91;21.73;99924.19;5055389;28;19967;-79
2021/04/12 12:19:41;;;;;;;;;;;;;;;24.94;22.50;99920.94;5044386;28;19952;-76
2021/04/12 12:22:18;;;;;;;;;;;;;;;25.07;21.31;99923.19;5033460;28;19921;-76
2021/04/12 12:24:43;;;;;;;;;;;;;;;25.16;22.65;99921.59;5034462;28;19913;-79
2021/04/12 12:27:22;;;;;;;;;;;;;;;25.20;21.79;99908.38;5034951;28;19920;-75
2021/04/12 12:29:50;;;;;;;;;;;;;;;25.03;22.67;99911.28;5015058;28;19909;-77
2021/04/12 12:32:15;;;;;;;;;;;;;;;24.88;22.43;99901.19;5021739;28;19944;-78
2021/04/12 12:34:40;;;;;;;;;;;;;;;24.91;22.74;99903.38;5034386;28;19959;-76
2021/04/12 12:37:24;;;;;;;;;;;;;;;24.96;21.70;99899.88;5034568;28;19962;-76
2021/04/12 12:39:53;;;;;;;;;;;;;;;25.07;22.88;99888.06;5035054;28;19917;-77
2021/04/12 12:42:21;;;;;;;;;;;;;;;25.10;21.60;99879.44;5015896;28;20224;-76
2021/04/12 12:44:47;;;;;;;;;;;;;;;25.14;21.73;99872.44;5033198;28;19921;-78
2021/04/12 12:47:14;;;;;;;;;;;;;;;25.17;21.97;99871.91;5033842;28;20046;-78
2021/04/12 12:49:45;;;;;;;;;;;;;;;25.22;22.12;99861.09;5024868;28;19913;-76
2021/04/12 12:52:13;;;;;;;;;;;;;;;25.16;22.51;99859.47;5031069;28;19920;-79
2021/04/12 12:54:39;;;;;;;;;;;;;;;25.16;21.98;99856.75;5016012;28;19920;-76
2021/04/12 12:57:06;;;;;;;;;;;;;;;25.03;22.34;99847.25;5031340;28;20308;-76
2021/04/12 12:59:37;;;;;;;;;;;;;;;25.07;22.63;99850.25;5015348;28;19969;-77
2021/04/12 13:02:12;;;;;;;;;;;;;;;25.06;22.48;99851.31;5016955;28;19916;-76
2021/04/12 13:04:37;;;;;;;;;;;;;;;24.94;22.22;99835.31;5019212;28;19919;-80
2021/04/12 13:07:12;;;;;;;;;;;;;;;24.97;22.07;99837.53;5031707;28;19921;-76
2021/04/12 13:09:51;;;;;;;;;;;;;;;25.08;21.72;99829.44;5032200;28;20243;-76
2021/04/12 13:12:16;;;;;;;;;;;;;;;25.17;22.04;99828.66;5013588;28;19917;-74
2021/04/12 13:15:05;;;;;;;;;;;;;;;25.27;21.72;99830.59;5027633;28;20002;-75
2021/04/12 13:17:35;;;;;;;;;;;;;;;25.43;21.15;99828.72;5035458;28;19909;-76
2021/04/12 13:20:00;;;;;;;;;;;;;;;25.43;21.16;99828.72;5037892;28;19917;-78
2021/04/12 13:22:30;;;;;;;;;;;;;;;25.43;21.42;99816.03;5036341;28;19959;-78
2021/04/12 13:25:12;;;;;;;;;;;;;;;25.61;20.52;99820.91;5036075;28;19913;-76
2021/04/12 13:27:38;;;;;;;;;;;;;;;25.66;21.78;99822.81;5020507;28;19909;-76
2021/04/12 13:30:05;;;;;;;;;;;;;;;25.78;21.02;99811.72;5038111;28;19924;-78
2021/04/12 13:32:33;;;;;;;;;;;;;;;25.85;21.47;99810.38;5038003;28;20062;-78